首页
METAR-TAF:

METAR-TAF

机场 :

卡森城, 内华达州, 美国

纬度: 39-11-32N, 经度: 119-44-04W, 海拔: 1432米

当前天气观测

该预报发布于30分钟前的01:15 UTC
风速16节,风向北转西北
温度 17°C
湿度 17%
气压 1016 hPa
能見度: 16.1公里
散云层高于7500英尺
多云层高于8500英尺

METAR: KCXP 210115Z AUTO 33016KT 10SM SCT075 BKN085 17/M08 A3001 RMK AO2

时间: 18:45 (01:45 UTC)

预报

该预报发布于2小时和25分钟前的23:20 UTC
预报有效从21日的 00点(UTC)到 21日的 24点(UTC)
风速7节,风向,有时为15节阵风
能見度: 10公里
散云层高于8000英尺
散云层高于20000英尺
从 21日的 0300点(UTC)
风速6节,风向北转东北
能見度: 10公里
少量云层高于20000英尺
从 21日的 1800点(UTC)
风速8节,风向
能見度: 10公里
天空无云

TAF: KCXP 202320Z 2100/2124 36007G15KT P6SM SCT080 SCT200 FM210300 03006KT P6SM FEW200 FM211800 08008KT P6SM SKC

超过4000个机场的气象观测和天气预报(METAR&TAF报告)。

可查询的气象台以黄色和红色小点在地图上表示。

将鼠标移到小点上方,可查看气象台名称。

然后点击查看天气观测和预报。

如需切换地图:点击带黑十字的绿色按钮放大地图;点击带横线的绿色按钮缩小地图;或者点击绿色箭头查看邻近地区的地图。


METAR-TAF: